sensor_id;sensor_type;location;lat;lon;timestamp;P1;durP1;ratioP1;P2;durP2;ratioP2
21297;SDS011;10808;48.010;11.326;2022-07-06T00:01:46;3.40;;;1.85;;
21297;SDS011;10808;48.010;11.326;2022-07-06T00:04:12;3.28;;;1.77;;
21297;SDS011;10808;48.010;11.326;2022-07-06T00:06:38;5.82;;;2.10;;
21297;SDS011;10808;48.010;11.326;2022-07-06T00:09:04;3.00;;;1.75;;
21297;SDS011;10808;48.010;11.326;2022-07-06T00:11:32;2.88;;;1.80;;
21297;SDS011;10808;48.010;11.326;2022-07-06T00:13:58;4.82;;;1.92;;
21297;SDS011;10808;48.010;11.326;2022-07-06T00:16:24;4.38;;;1.83;;
21297;SDS011;10808;48.010;11.326;2022-07-06T00:18:51;2.67;;;1.90;;
21297;SDS011;10808;48.010;11.326;2022-07-06T00:21:17;2.95;;;1.80;;
21297;SDS011;10808;48.010;11.326;2022-07-06T00:23:43;5.00;;;1.80;;
21297;SDS011;10808;48.010;11.326;2022-07-06T00:26:09;3.00;;;1.55;;
21297;SDS011;10808;48.010;11.326;2022-07-06T00:28:36;3.10;;;2.10;;
21297;SDS011;10808;48.010;11.326;2022-07-06T00:31:02;3.50;;;1.83;;
21297;SDS011;10808;48.010;11.326;2022-07-06T00:33:29;2.75;;;1.80;;
21297;SDS011;10808;48.010;11.326;2022-07-06T00:35:55;2.10;;;1.90;;
21297;SDS011;10808;48.010;11.326;2022-07-06T00:38:21;2.78;;;1.90;;
21297;SDS011;10808;48.010;11.326;2022-07-06T00:40:47;2.55;;;1.80;;
21297;SDS011;10808;48.010;11.326;2022-07-06T00:43:13;3.67;;;1.75;;
21297;SDS011;10808;48.010;11.326;2022-07-06T00:45:39;3.13;;;1.77;;
21297;SDS011;10808;48.010;11.326;2022-07-06T00:48:05;1.95;;;1.70;;
21297;SDS011;10808;48.010;11.326;2022-07-06T00:50:32;1.70;;;1.60;;
21297;SDS011;10808;48.010;11.326;2022-07-06T00:53:00;2.65;;;2.00;;
21297;SDS011;10808;48.010;11.326;2022-07-06T00:55:29;2.00;;;1.80;;
21297;SDS011;10808;48.010;11.326;2022-07-06T00:57:57;2.50;;;1.93;;
21297;SDS011;10808;48.010;11.326;2022-07-06T01:00:24;4.40;;;1.90;;
21297;SDS011;10808;48.010;11.326;2022-07-06T01:02:51;4.05;;;2.00;;
21297;SDS011;10808;48.010;11.326;2022-07-06T01:05:18;2.87;;;2.00;;
21297;SDS011;10808;48.010;11.326;2022-07-06T01:07:46;2.87;;;1.77;;
21297;SDS011;10808;48.010;11.326;2022-07-06T01:10:15;2.33;;;1.90;;
21297;SDS011;10808;48.010;11.326;2022-07-06T01:12:43;4.00;;;1.60;;
21297;SDS011;10808;48.010;11.326;2022-07-06T01:15:11;1.65;;;1.55;;
21297;SDS011;10808;48.010;11.326;2022-07-06T01:17:42;3.10;;;1.70;;
21297;SDS011;10808;48.010;11.326;2022-07-06T01:20:10;1.80;;;1.70;;
21297;SDS011;10808;48.010;11.326;2022-07-06T01:22:43;2.63;;;1.67;;
21297;SDS011;10808;48.010;11.326;2022-07-06T01:28:33;2.80;;;1.80;;
21297;SDS011;10808;48.010;11.326;2022-07-06T01:30:59;4.60;;;1.60;;
21297;SDS011;10808;48.010;11.326;2022-07-06T01:33:25;3.63;;;1.87;;
21297;SDS011;10808;48.010;11.326;2022-07-06T01:35:51;2.17;;;1.70;;
21297;SDS011;10808;48.010;11.326;2022-07-06T01:38:17;1.85;;;1.75;;
21297;SDS011;10808;48.010;11.326;2022-07-06T01:40:43;2.95;;;1.83;;
21297;SDS011;10808;48.010;11.326;2022-07-06T01:43:09;2.60;;;1.92;;
21297;SDS011;10808;48.010;11.326;2022-07-06T01:45:35;2.00;;;1.70;;
21297;SDS011;10808;48.010;11.326;2022-07-06T01:48:04;3.28;;;1.85;;
21297;SDS011;10808;48.010;11.326;2022-07-06T01:50:31;2.65;;;2.00;;
21297;SDS011;10808;48.010;11.326;2022-07-06T01:52:59;2.45;;;1.83;;
21297;SDS011;10808;48.010;11.326;2022-07-06T01:55:25;3.38;;;1.85;;
21297;SDS011;10808;48.010;11.326;2022-07-06T01:57:51;2.53;;;1.83;;
21297;SDS011;10808;48.010;11.326;2022-07-06T02:00:17;2.80;;;2.00;;
21297;SDS011;10808;48.010;11.326;2022-07-06T02:02:43;2.63;;;1.90;;
21297;SDS011;10808;48.010;11.326;2022-07-06T02:05:09;1.97;;;1.77;;
21297;SDS011;10808;48.010;11.326;2022-07-06T02:07:35;2.70;;;1.80;;
21297;SDS011;10808;48.010;11.326;2022-07-06T02:10:02;1.88;;;1.70;;
21297;SDS011;10808;48.010;11.326;2022-07-06T02:12:28;2.97;;;1.70;;
21297;SDS011;10808;48.010;11.326;2022-07-06T02:14:54;3.33;;;1.88;;
21297;SDS011;10808;48.010;11.326;2022-07-06T02:17:20;2.45;;;1.75;;
21297;SDS011;10808;48.010;11.326;2022-07-06T02:19:46;2.10;;;1.70;;
21297;SDS011;10808;48.010;11.326;2022-07-06T02:22:12;1.92;;;1.83;;
21297;SDS011;10808;48.010;11.326;2022-07-06T02:24:38;2.00;;;1.80;;
21297;SDS011;10808;48.010;11.326;2022-07-06T02:27:04;3.17;;;1.88;;
21297;SDS011;10808;48.010;11.326;2022-07-06T02:29:30;1.90;;;1.70;;
21297;SDS011;10808;48.010;11.326;2022-07-06T02:31:56;3.72;;;2.00;;
21297;SDS011;10808;48.010;11.326;2022-07-06T02:34:22;2.00;;;1.80;;
21297;SDS011;10808;48.010;11.326;2022-07-06T02:36:49;3.50;;;2.00;;
21297;SDS011;10808;48.010;11.326;2022-07-06T02:39:15;2.17;;;1.98;;
21297;SDS011;10808;48.010;11.326;2022-07-06T02:41:41;3.10;;;1.80;;
21297;SDS011;10808;48.010;11.326;2022-07-06T02:44:07;2.10;;;1.80;;
21297;SDS011;10808;48.010;11.326;2022-07-06T02:46:33;3.60;;;2.10;;
21297;SDS011;10808;48.010;11.326;2022-07-06T02:48:59;2.80;;;1.95;;
21297;SDS011;10808;48.010;11.326;2022-07-06T02:51:25;3.58;;;1.80;;
21297;SDS011;10808;48.010;11.326;2022-07-06T02:53:51;2.63;;;1.88;;
21297;SDS011;10808;48.010;11.326;2022-07-06T02:56:17;2.10;;;1.90;;
21297;SDS011;10808;48.010;11.326;2022-07-06T02:58:43;3.88;;;1.83;;
21297;SDS011;10808;48.010;11.326;2022-07-06T03:01:09;4.78;;;1.90;;
21297;SDS011;10808;48.010;11.326;2022-07-06T03:03:35;3.25;;;1.80;;
21297;SDS011;10808;48.010;11.326;2022-07-06T03:06:01;2.72;;;1.85;;
21297;SDS011;10808;48.010;11.326;2022-07-06T03:08:27;2.70;;;2.10;;
21297;SDS011;10808;48.010;11.326;2022-07-06T03:10:53;2.30;;;2.03;;
21297;SDS011;10808;48.010;11.326;2022-07-06T03:13:19;3.08;;;2.10;;
21297;SDS011;10808;48.010;11.326;2022-07-06T03:15:45;2.60;;;2.13;;
21297;SDS011;10808;48.010;11.326;2022-07-06T03:18:11;2.93;;;2.27;;
21297;SDS011;10808;48.010;11.326;2022-07-06T03:20:37;2.23;;;2.00;;
21297;SDS011;10808;48.010;11.326;2022-07-06T03:23:03;3.95;;;2.10;;
21297;SDS011;10808;48.010;11.326;2022-07-06T03:25:29;3.70;;;2.20;;
21297;SDS011;10808;48.010;11.326;2022-07-06T03:27:55;2.40;;;2.20;;
21297;SDS011;10808;48.010;11.326;2022-07-06T03:30:21;2.40;;;2.20;;
21297;SDS011;10808;48.010;11.326;2022-07-06T03:32:47;2.53;;;2.20;;
21297;SDS011;10808;48.010;11.326;2022-07-06T03:35:13;3.33;;;2.38;;
21297;SDS011;10808;48.010;11.326;2022-07-06T03:37:39;4.30;;;2.30;;
21297;SDS011;10808;48.010;11.326;2022-07-06T03:40:05;5.05;;;2.40;;
21297;SDS011;10808;48.010;11.326;2022-07-06T03:42:32;2.92;;;2.30;;
21297;SDS011;10808;48.010;11.326;2022-07-06T03:44:58;4.22;;;2.40;;
21297;SDS011;10808;48.010;11.326;2022-07-06T03:47:24;5.20;;;2.65;;
21297;SDS011;10808;48.010;11.326;2022-07-06T03:49:50;2.88;;;2.50;;
21297;SDS011;10808;48.010;11.326;2022-07-06T03:52:16;3.45;;;2.42;;
21297;SDS011;10808;48.010;11.326;2022-07-06T03:54:42;3.30;;;2.30;;
21297;SDS011;10808;48.010;11.326;2022-07-06T03:57:08;2.88;;;2.47;;
21297;SDS011;10808;48.010;11.326;2022-07-06T03:59:34;4.27;;;2.30;;
21297;SDS011;10808;48.010;11.326;2022-07-06T04:02:00;2.97;;;2.25;;
21297;SDS011;10808;48.010;11.326;2022-07-06T04:04:26;2.88;;;2.25;;
21297;SDS011;10808;48.010;11.326;2022-07-06T04:06:52;3.80;;;2.58;;
21297;SDS011;10808;48.010;11.326;2022-07-06T04:09:18;2.90;;;2.40;;
21297;SDS011;10808;48.010;11.326;2022-07-06T04:11:44;3.05;;;2.38;;
21297;SDS011;10808;48.010;11.326;2022-07-06T04:14:10;2.53;;;2.33;;
21297;SDS011;10808;48.010;11.326;2022-07-06T04:16:36;4.60;;;2.55;;
21297;SDS011;10808;48.010;11.326;2022-07-06T04:19:02;2.90;;;2.60;;
21297;SDS011;10808;48.010;11.326;2022-07-06T04:21:28;3.63;;;2.70;;
21297;SDS011;10808;48.010;11.326;2022-07-06T04:23:54;3.95;;;2.60;;
21297;SDS011;10808;48.010;11.326;2022-07-06T04:26:20;3.13;;;2.50;;
21297;SDS011;10808;48.010;11.326;2022-07-06T04:28:46;3.15;;;2.47;;
21297;SDS011;10808;48.010;11.326;2022-07-06T04:31:12;2.78;;;2.45;;
21297;SDS011;10808;48.010;11.326;2022-07-06T04:33:41;3.33;;;2.60;;
21297;SDS011;10808;48.010;11.326;2022-07-06T04:36:08;2.88;;;2.30;;
21297;SDS011;10808;48.010;11.326;2022-07-06T04:38:35;3.15;;;2.35;;
21297;SDS011;10808;48.010;11.326;2022-07-06T04:41:02;3.78;;;2.50;;
21297;SDS011;10808;48.010;11.326;2022-07-06T04:43:28;2.90;;;2.25;;
21297;SDS011;10808;48.010;11.326;2022-07-06T04:45:54;2.47;;;2.25;;
21297;SDS011;10808;48.010;11.326;2022-07-06T04:48:20;3.42;;;2.15;;
21297;SDS011;10808;48.010;11.326;2022-07-06T04:50:46;2.92;;;2.22;;
21297;SDS011;10808;48.010;11.326;2022-07-06T04:53:12;3.22;;;2.20;;
21297;SDS011;10808;48.010;11.326;2022-07-06T04:55:38;2.58;;;2.38;;
21297;SDS011;10808;48.010;11.326;2022-07-06T04:58:04;2.30;;;2.10;;
21297;SDS011;10808;48.010;11.326;2022-07-06T05:00:30;3.53;;;2.35;;
21297;SDS011;10808;48.010;11.326;2022-07-06T05:02:56;2.35;;;2.15;;
21297;SDS011;10808;48.010;11.326;2022-07-06T05:05:22;3.47;;;2.20;;
21297;SDS011;10808;48.010;11.326;2022-07-06T05:07:49;2.20;;;2.00;;
21297;SDS011;10808;48.010;11.326;2022-07-06T05:10:15;2.30;;;2.10;;
21297;SDS011;10808;48.010;11.326;2022-07-06T05:12:41;2.30;;;2.10;;
21297;SDS011;10808;48.010;11.326;2022-07-06T05:15:07;4.00;;;2.30;;
21297;SDS011;10808;48.010;11.326;2022-07-06T05:17:33;2.90;;;2.20;;
21297;SDS011;10808;48.010;11.326;2022-07-06T05:19:59;2.65;;;2.30;;
21297;SDS011;10808;48.010;11.326;2022-07-06T05:22:26;3.00;;;2.17;;
21297;SDS011;10808;48.010;11.326;2022-07-06T05:24:52;2.72;;;2.20;;
21297;SDS011;10808;48.010;11.326;2022-07-06T05:27:18;3.58;;;2.20;;
21297;SDS011;10808;48.010;11.326;2022-07-06T05:29:44;2.83;;;2.03;;
21297;SDS011;10808;48.010;11.326;2022-07-06T05:32:11;2.72;;;2.15;;
21297;SDS011;10808;48.010;11.326;2022-07-06T05:34:37;3.00;;;2.00;;
21297;SDS011;10808;48.010;11.326;2022-07-06T05:37:03;2.80;;;2.10;;
21297;SDS011;10808;48.010;11.326;2022-07-06T05:39:29;2.85;;;2.00;;
21297;SDS011;10808;48.010;11.326;2022-07-06T05:41:55;3.45;;;2.28;;
21297;SDS011;10808;48.010;11.326;2022-07-06T05:44:21;4.28;;;2.20;;
21297;SDS011;10808;48.010;11.326;2022-07-06T05:46:47;3.58;;;2.17;;
21297;SDS011;10808;48.010;11.326;2022-07-06T05:49:13;3.22;;;2.20;;
21297;SDS011;10808;48.010;11.326;2022-07-06T05:51:58;4.93;;;2.10;;
21297;SDS011;10808;48.010;11.326;2022-07-06T05:54:24;2.70;;;2.50;;
21297;SDS011;10808;48.010;11.326;2022-07-06T05:56:50;4.47;;;2.40;;
21297;SDS011;10808;48.010;11.326;2022-07-06T05:59:16;3.30;;;2.20;;
21297;SDS011;10808;48.010;11.326;2022-07-06T06:01:42;2.78;;;2.35;;
21297;SDS011;10808;48.010;11.326;2022-07-06T06:04:08;3.30;;;2.13;;
21297;SDS011;10808;48.010;11.326;2022-07-06T06:06:34;3.10;;;2.13;;
21297;SDS011;10808;48.010;11.326;2022-07-06T06:09:00;2.78;;;2.10;;
21297;SDS011;10808;48.010;11.326;2022-07-06T06:11:26;2.38;;;2.10;;
21297;SDS011;10808;48.010;11.326;2022-07-06T06:13:52;3.30;;;2.20;;
21297;SDS011;10808;48.010;11.326;2022-07-06T06:16:18;2.88;;;2.13;;
21297;SDS011;10808;48.010;11.326;2022-07-06T06:18:44;4.57;;;2.33;;
21297;SDS011;10808;48.010;11.326;2022-07-06T06:21:10;3.08;;;2.30;;
21297;SDS011;10808;48.010;11.326;2022-07-06T06:23:36;3.03;;;2.10;;
21297;SDS011;10808;48.010;11.326;2022-07-06T06:26:02;2.53;;;2.15;;
21297;SDS011;10808;48.010;11.326;2022-07-06T06:28:28;5.57;;;2.38;;
21297;SDS011;10808;48.010;11.326;2022-07-06T06:30:54;2.92;;;2.15;;
21297;SDS011;10808;48.010;11.326;2022-07-06T06:33:20;2.60;;;2.17;;
21297;SDS011;10808;48.010;11.326;2022-07-06T06:35:47;3.03;;;2.38;;
21297;SDS011;10808;48.010;11.326;2022-07-06T06:38:15;3.63;;;2.20;;
21297;SDS011;10808;48.010;11.326;2022-07-06T06:40:42;2.85;;;2.25;;
21297;SDS011;10808;48.010;11.326;2022-07-06T06:43:08;2.67;;;2.47;;
21297;SDS011;10808;48.010;11.326;2022-07-06T06:45:35;2.30;;;2.10;;
21297;SDS011;10808;48.010;11.326;2022-07-06T06:48:01;2.60;;;2.40;;
21297;SDS011;10808;48.010;11.326;2022-07-06T06:50:27;2.50;;;2.30;;
21297;SDS011;10808;48.010;11.326;2022-07-06T06:52:53;3.03;;;2.47;;
21297;SDS011;10808;48.010;11.326;2022-07-06T06:55:19;3.40;;;2.30;;
21297;SDS011;10808;48.010;11.326;2022-07-06T06:57:45;2.47;;;2.28;;
21297;SDS011;10808;48.010;11.326;2022-07-06T07:00:12;2.72;;;2.22;;
21297;SDS011;10808;48.010;11.326;2022-07-06T07:02:38;4.63;;;2.40;;
21297;SDS011;10808;48.010;11.326;2022-07-06T07:05:04;4.13;;;2.22;;
21297;SDS011;10808;48.010;11.326;2022-07-06T07:07:31;2.22;;;1.92;;
21297;SDS011;10808;48.010;11.326;2022-07-06T07:09:58;2.63;;;2.13;;
21297;SDS011;10808;48.010;11.326;2022-07-06T07:12:24;4.20;;;2.37;;
21297;SDS011;10808;48.010;11.326;2022-07-06T07:14:51;5.13;;;2.40;;
21297;SDS011;10808;48.010;11.326;2022-07-06T07:17:17;3.40;;;2.42;;
21297;SDS011;10808;48.010;11.326;2022-07-06T07:19:43;4.07;;;2.40;;
21297;SDS011;10808;48.010;11.326;2022-07-06T07:22:09;2.38;;;2.17;;
21297;SDS011;10808;48.010;11.326;2022-07-06T07:24:35;3.25;;;2.10;;
21297;SDS011;10808;48.010;11.326;2022-07-06T07:27:01;2.88;;;2.17;;
21297;SDS011;10808;48.010;11.326;2022-07-06T07:29:27;3.25;;;2.55;;
21297;SDS011;10808;48.010;11.326;2022-07-06T07:31:53;6.00;;;2.60;;
21297;SDS011;10808;48.010;11.326;2022-07-06T07:34:19;2.60;;;2.40;;
21297;SDS011;10808;48.010;11.326;2022-07-06T07:36:45;2.50;;;2.30;;
21297;SDS011;10808;48.010;11.326;2022-07-06T07:39:11;4.90;;;2.50;;
21297;SDS011;10808;48.010;11.326;2022-07-06T07:41:38;4.10;;;2.40;;
21297;SDS011;10808;48.010;11.326;2022-07-06T07:44:04;2.55;;;2.35;;
21297;SDS011;10808;48.010;11.326;2022-07-06T07:46:30;5.05;;;2.55;;
21297;SDS011;10808;48.010;11.326;2022-07-06T07:48:56;3.55;;;2.53;;
21297;SDS011;10808;48.010;11.326;2022-07-06T07:51:23;3.10;;;2.17;;
21297;SDS011;10808;48.010;11.326;2022-07-06T07:53:49;2.53;;;2.20;;
21297;SDS011;10808;48.010;11.326;2022-07-06T07:56:15;3.13;;;2.40;;
21297;SDS011;10808;48.010;11.326;2022-07-06T07:58:41;2.85;;;2.58;;
21297;SDS011;10808;48.010;11.326;2022-07-06T08:01:07;5.82;;;2.35;;
21297;SDS011;10808;48.010;11.326;2022-07-06T08:03:33;2.63;;;2.40;;
21297;SDS011;10808;48.010;11.326;2022-07-06T08:05:59;2.53;;;2.33;;
21297;SDS011;10808;48.010;11.326;2022-07-06T08:08:25;3.13;;;2.20;;
21297;SDS011;10808;48.010;11.326;2022-07-06T08:10:51;2.75;;;1.90;;
21297;SDS011;10808;48.010;11.326;2022-07-06T08:13:17;3.65;;;2.20;;
21297;SDS011;10808;48.010;11.326;2022-07-06T08:15:44;3.28;;;2.50;;
21297;SDS011;10808;48.010;11.326;2022-07-06T08:18:10;4.35;;;2.58;;
21297;SDS011;10808;48.010;11.326;2022-07-06T08:20:36;3.60;;;2.60;;
21297;SDS011;10808;48.010;11.326;2022-07-06T08:23:03;5.00;;;2.72;;
21297;SDS011;10808;48.010;11.326;2022-07-06T08:25:29;5.00;;;2.33;;
21297;SDS011;10808;48.010;11.326;2022-07-06T08:27:56;2.90;;;2.55;;
21297;SDS011;10808;48.010;11.326;2022-07-06T08:30:22;4.40;;;2.38;;
21297;SDS011;10808;48.010;11.326;2022-07-06T08:32:48;3.70;;;2.70;;
21297;SDS011;10808;48.010;11.326;2022-07-06T08:35:14;3.75;;;2.55;;
21297;SDS011;10808;48.010;11.326;2022-07-06T08:37:40;5.18;;;2.20;;
21297;SDS011;10808;48.010;11.326;2022-07-06T08:40:07;3.03;;;2.25;;
21297;SDS011;10808;48.010;11.326;2022-07-06T08:42:34;4.33;;;2.50;;
21297;SDS011;10808;48.010;11.326;2022-07-06T08:45:03;3.00;;;2.40;;
21297;SDS011;10808;48.010;11.326;2022-07-06T08:47:31;3.20;;;2.53;;
21297;SDS011;10808;48.010;11.326;2022-07-06T08:49:57;5.43;;;2.70;;
21297;SDS011;10808;48.010;11.326;2022-07-06T08:52:23;4.00;;;2.67;;
21297;SDS011;10808;48.010;11.326;2022-07-06T08:54:50;5.43;;;2.40;;
21297;SDS011;10808;48.010;11.326;2022-07-06T08:57:16;4.68;;;2.45;;
21297;SDS011;10808;48.010;11.326;2022-07-06T08:59:43;2.97;;;2.50;;
21297;SDS011;10808;48.010;11.326;2022-07-06T09:02:09;3.90;;;2.58;;
21297;SDS011;10808;48.010;11.326;2022-07-06T09:04:36;4.43;;;2.88;;
21297;SDS011;10808;48.010;11.326;2022-07-06T09:07:03;3.60;;;2.47;;
21297;SDS011;10808;48.010;11.326;2022-07-06T09:09:30;2.55;;;2.05;;
21297;SDS011;10808;48.010;11.326;2022-07-06T09:11:56;4.50;;;2.50;;
21297;SDS011;10808;48.010;11.326;2022-07-06T09:14:22;3.70;;;2.60;;
21297;SDS011;10808;48.010;11.326;2022-07-06T09:16:52;3.58;;;2.38;;
21297;SDS011;10808;48.010;11.326;2022-07-06T09:19:30;3.45;;;2.60;;
21297;SDS011;10808;48.010;11.326;2022-07-06T09:21:57;3.30;;;2.50;;
21297;SDS011;10808;48.010;11.326;2022-07-06T09:24:23;4.53;;;2.55;;
21297;SDS011;10808;48.010;11.326;2022-07-06T09:26:54;2.83;;;2.50;;
21297;SDS011;10808;48.010;11.326;2022-07-06T09:29:28;2.75;;;2.45;;
21297;SDS011;10808;48.010;11.326;2022-07-06T09:32:01;4.38;;;2.75;;
21297;SDS011;10808;48.010;11.326;2022-07-06T09:34:42;3.38;;;2.63;;
21297;SDS011;10808;48.010;11.326;2022-07-06T09:37:09;2.70;;;2.50;;
21297;SDS011;10808;48.010;11.326;2022-07-06T09:39:36;3.47;;;2.40;;
21297;SDS011;10808;48.010;11.326;2022-07-06T09:42:03;3.17;;;2.67;;
21297;SDS011;10808;48.010;11.326;2022-07-06T09:44:30;3.57;;;2.67;;
21297;SDS011;10808;48.010;11.326;2022-07-06T09:46:58;3.33;;;2.40;;
21297;SDS011;10808;48.010;11.326;2022-07-06T09:49:25;3.72;;;2.80;;
21297;SDS011;10808;48.010;11.326;2022-07-06T09:51:56;3.80;;;2.15;;
21297;SDS011;10808;48.010;11.326;2022-07-06T09:54:23;2.85;;;2.28;;
21297;SDS011;10808;48.010;11.326;2022-07-06T09:56:50;3.83;;;2.42;;
21297;SDS011;10808;48.010;11.326;2022-07-06T09:59:19;2.85;;;2.55;;
21297;SDS011;10808;48.010;11.326;2022-07-06T10:01:59;3.58;;;2.47;;
21297;SDS011;10808;48.010;11.326;2022-07-06T10:04:28;5.20;;;2.60;;
21297;SDS011;10808;48.010;11.326;2022-07-06T10:06:55;3.60;;;2.47;;
21297;SDS011;10808;48.010;11.326;2022-07-06T10:09:24;4.03;;;2.50;;
21297;SDS011;10808;48.010;11.326;2022-07-06T10:11:53;3.58;;;2.30;;
21297;SDS011;10808;48.010;11.326;2022-07-06T10:14:23;3.97;;;2.50;;
21297;SDS011;10808;48.010;11.326;2022-07-06T10:16:54;3.80;;;2.38;;
21297;SDS011;10808;48.010;11.326;2022-07-06T10:19:22;3.50;;;2.50;;
21297;SDS011;10808;48.010;11.326;2022-07-06T10:21:49;2.85;;;2.30;;
21297;SDS011;10808;48.010;11.326;2022-07-06T10:24:17;6.20;;;2.40;;
21297;SDS011;10808;48.010;11.326;2022-07-06T10:26:45;4.43;;;2.50;;
21297;SDS011;10808;48.010;11.326;2022-07-06T10:29:11;3.78;;;2.40;;
21297;SDS011;10808;48.010;11.326;2022-07-06T10:31:40;5.60;;;2.80;;
21297;SDS011;10808;48.010;11.326;2022-07-06T10:34:10;3.70;;;2.28;;
21297;SDS011;10808;48.010;11.326;2022-07-06T10:36:41;4.18;;;2.50;;
21297;SDS011;10808;48.010;11.326;2022-07-06T10:39:09;4.28;;;2.50;;
21297;SDS011;10808;48.010;11.326;2022-07-06T10:41:54;4.57;;;2.53;;
21297;SDS011;10808;48.010;11.326;2022-07-06T10:44:25;4.20;;;2.40;;
21297;SDS011;10808;48.010;11.326;2022-07-06T10:46:56;5.50;;;2.40;;
21297;SDS011;10808;48.010;11.326;2022-07-06T10:49:24;3.70;;;2.17;;
21297;SDS011;10808;48.010;11.326;2022-07-06T10:51:52;10.50;;;2.60;;
21297;SDS011;10808;48.010;11.326;2022-07-06T10:54:21;3.55;;;2.30;;
21297;SDS011;10808;48.010;11.326;2022-07-06T10:56:49;3.38;;;2.13;;
21297;SDS011;10808;48.010;11.326;2022-07-06T11:04:39;3.85;;;2.13;;
21297;SDS011;10808;48.010;11.326;2022-07-06T11:07:08;3.92;;;2.20;;
21297;SDS011;10808;48.010;11.326;2022-07-06T11:09:36;3.67;;;1.80;;
21297;SDS011;10808;48.010;11.326;2022-07-06T11:12:17;3.33;;;2.22;;
21297;SDS011;10808;48.010;11.326;2022-07-06T11:14:44;3.15;;;2.10;;
21297;SDS011;10808;48.010;11.326;2022-07-06T11:17:12;2.92;;;1.92;;
21297;SDS011;10808;48.010;11.326;2022-07-06T11:19:38;4.72;;;2.17;;
21297;SDS011;10808;48.010;11.326;2022-07-06T11:22:23;2.40;;;2.10;;
21297;SDS011;10808;48.010;11.326;2022-07-06T11:24:51;5.43;;;2.30;;
21297;SDS011;10808;48.010;11.326;2022-07-06T11:27:18;3.80;;;2.35;;
21297;SDS011;10808;48.010;11.326;2022-07-06T11:29:44;3.75;;;2.30;;
21297;SDS011;10808;48.010;11.326;2022-07-06T11:32:11;4.30;;;1.90;;
21297;SDS011;10808;48.010;11.326;2022-07-06T11:34:40;5.50;;;2.30;;
21297;SDS011;10808;48.010;11.326;2022-07-06T11:37:11;3.47;;;2.30;;
21297;SDS011;10808;48.010;11.326;2022-07-06T11:39:39;2.40;;;2.20;;
21297;SDS011;10808;48.010;11.326;2022-07-06T11:42:11;3.85;;;2.08;;
21297;SDS011;10808;48.010;11.326;2022-07-06T11:44:39;2.88;;;2.22;;
21297;SDS011;10808;48.010;11.326;2022-07-06T11:47:06;3.60;;;2.30;;
21297;SDS011;10808;48.010;11.326;2022-07-06T11:49:35;4.63;;;2.33;;
21297;SDS011;10808;48.010;11.326;2022-07-06T11:52:06;5.28;;;2.30;;
21297;SDS011;10808;48.010;11.326;2022-07-06T11:54:37;3.55;;;2.17;;
21297;SDS011;10808;48.010;11.326;2022-07-06T11:57:03;6.25;;;2.60;;
21297;SDS011;10808;48.010;11.326;2022-07-06T11:59:33;3.90;;;2.20;;
21297;SDS011;10808;48.010;11.326;2022-07-06T12:04:31;3.92;;;2.42;;
21297;SDS011;10808;48.010;11.326;2022-07-06T12:07:02;2.53;;;2.20;;
21297;SDS011;10808;48.010;11.326;2022-07-06T12:09:34;3.17;;;2.10;;
21297;SDS011;10808;48.010;11.326;2022-07-06T12:12:01;3.70;;;2.00;;
21297;SDS011;10808;48.010;11.326;2022-07-06T12:14:28;3.33;;;2.05;;
21297;SDS011;10808;48.010;11.326;2022-07-06T12:16:56;2.17;;;2.00;;
21297;SDS011;10808;48.010;11.326;2022-07-06T12:19:27;4.33;;;2.37;;
21297;SDS011;10808;48.010;11.326;2022-07-06T12:21:53;4.80;;;2.40;;
21297;SDS011;10808;48.010;11.326;2022-07-06T12:24:20;4.05;;;2.13;;
21297;SDS011;10808;48.010;11.326;2022-07-06T12:26:48;4.53;;;2.10;;
21297;SDS011;10808;48.010;11.326;2022-07-06T12:29:15;5.80;;;2.33;;
21297;SDS011;10808;48.010;11.326;2022-07-06T12:31:43;5.90;;;2.35;;
21297;SDS011;10808;48.010;11.326;2022-07-06T12:34:14;2.55;;;2.17;;
21297;SDS011;10808;48.010;11.326;2022-07-06T12:36:47;4.75;;;1.90;;
21297;SDS011;10808;48.010;11.326;2022-07-06T12:39:18;2.45;;;1.98;;
21297;SDS011;10808;48.010;11.326;2022-07-06T12:44:16;2.83;;;1.98;;
21297;SDS011;10808;48.010;11.326;2022-07-06T12:46:47;3.33;;;1.97;;
21297;SDS011;10808;48.010;11.326;2022-07-06T12:49:16;6.13;;;2.30;;
21297;SDS011;10808;48.010;11.326;2022-07-06T12:51:51;3.92;;;1.92;;
21297;SDS011;10808;48.010;11.326;2022-07-06T12:54:18;2.97;;;2.15;;
21297;SDS011;10808;48.010;11.326;2022-07-06T12:59:35;4.30;;;2.10;;
21297;SDS011;10808;48.010;11.326;2022-07-06T13:02:06;2.40;;;2.20;;
21297;SDS011;10808;48.010;11.326;2022-07-06T13:04:35;3.20;;;1.92;;
21297;SDS011;10808;48.010;11.326;2022-07-06T13:07:02;3.53;;;2.10;;
21297;SDS011;10808;48.010;11.326;2022-07-06T13:09:29;3.95;;;2.00;;
21297;SDS011;10808;48.010;11.326;2022-07-06T13:11:55;4.00;;;1.90;;
21297;SDS011;10808;48.010;11.326;2022-07-06T13:14:22;2.45;;;1.85;;
21297;SDS011;10808;48.010;11.326;2022-07-06T13:16:48;2.57;;;1.90;;
21297;SDS011;10808;48.010;11.326;2022-07-06T13:19:14;2.93;;;2.03;;
21297;SDS011;10808;48.010;11.326;2022-07-06T13:21:40;2.78;;;1.88;;
21297;SDS011;10808;48.010;11.326;2022-07-06T13:24:06;3.38;;;1.75;;
21297;SDS011;10808;48.010;11.326;2022-07-06T13:26:33;2.95;;;2.17;;
21297;SDS011;10808;48.010;11.326;2022-07-06T13:28:59;4.32;;;2.08;;
21297;SDS011;10808;48.010;11.326;2022-07-06T13:31:26;3.07;;;2.10;;
21297;SDS011;10808;48.010;11.326;2022-07-06T13:33:53;2.75;;;2.00;;
21297;SDS011;10808;48.010;11.326;2022-07-06T13:36:20;3.25;;;2.10;;
21297;SDS011;10808;48.010;11.326;2022-07-06T13:38:46;3.38;;;2.10;;
21297;SDS011;10808;48.010;11.326;2022-07-06T13:41:12;6.97;;;2.00;;
21297;SDS011;10808;48.010;11.326;2022-07-06T13:43:38;2.17;;;1.92;;
21297;SDS011;10808;48.010;11.326;2022-07-06T13:46:04;3.40;;;1.92;;
21297;SDS011;10808;48.010;11.326;2022-07-06T13:48:32;3.07;;;1.80;;
21297;SDS011;10808;48.010;11.326;2022-07-06T13:50:59;2.92;;;1.90;;
21297;SDS011;10808;48.010;11.326;2022-07-06T13:53:25;3.70;;;1.85;;
21297;SDS011;10808;48.010;11.326;2022-07-06T13:55:51;4.03;;;2.30;;
21297;SDS011;10808;48.010;11.326;2022-07-06T13:58:18;3.70;;;1.80;;
21297;SDS011;10808;48.010;11.326;2022-07-06T14:00:44;2.88;;;1.70;;
21297;SDS011;10808;48.010;11.326;2022-07-06T14:03:11;3.33;;;1.80;;
21297;SDS011;10808;48.010;11.326;2022-07-06T14:05:37;2.70;;;1.90;;
21297;SDS011;10808;48.010;11.326;2022-07-06T14:08:03;2.47;;;1.98;;
21297;SDS011;10808;48.010;11.326;2022-07-06T14:10:29;8.80;;;2.03;;
21297;SDS011;10808;48.010;11.326;2022-07-06T14:12:55;4.75;;;2.00;;
21297;SDS011;10808;48.010;11.326;2022-07-06T14:15:21;2.38;;;1.92;;
21297;SDS011;10808;48.010;11.326;2022-07-06T14:17:47;9.00;;;2.08;;
21297;SDS011;10808;48.010;11.326;2022-07-06T14:20:14;4.28;;;1.98;;
21297;SDS011;10808;48.010;11.326;2022-07-06T14:22:41;3.83;;;2.13;;
21297;SDS011;10808;48.010;11.326;2022-07-06T14:25:07;2.20;;;2.00;;
21297;SDS011;10808;48.010;11.326;2022-07-06T14:27:34;2.65;;;1.95;;
21297;SDS011;10808;48.010;11.326;2022-07-06T14:30:00;2.58;;;1.90;;
21297;SDS011;10808;48.010;11.326;2022-07-06T14:32:26;2.58;;;1.95;;
21297;SDS011;10808;48.010;11.326;2022-07-06T14:34:52;2.60;;;1.98;;
21297;SDS011;10808;48.010;11.326;2022-07-06T14:37:18;3.85;;;2.00;;
21297;SDS011;10808;48.010;11.326;2022-07-06T14:39:44;3.67;;;2.05;;
21297;SDS011;10808;48.010;11.326;2022-07-06T14:42:12;2.20;;;2.00;;
21297;SDS011;10808;48.010;11.326;2022-07-06T14:44:38;2.17;;;1.87;;
21297;SDS011;10808;48.010;11.326;2022-07-06T14:47:04;4.60;;;2.15;;
21297;SDS011;10808;48.010;11.326;2022-07-06T14:49:30;2.03;;;1.83;;